LFOB/BVA METAR and TAF weather

Enter ICAO airport designator
Station Type Date Time Source
LFOB METAR 2021/07/31 00:30 UTC NOAA

LFOB 310030Z AUTO 24010KT 9999 FEW020 14/11 Q1011 NOSIG


Station Type Date Time Source
LFOB Decoded METAR 2021/07/31 00:30 UTC NOAA

Beauvais, France (LFOB) 49-28N 002-07E 111M
Jul 30, 2021 - 08:30 PM EDT / 2021.07.31 0030 UTC
Wind: from the WSW (240 degrees) at 12 MPH (10 KT):0
Visibility: greater than 7 mile(s):0
Sky conditions: mostly clear
Temperature: 57 F (14 C)
Dew Point: 51 F (11 C)
Relative Humidity: 82%
Pressure (altimeter): 29.85 in. Hg (1011 hPa)
ob: LFOB 310030Z AUTO 24010KT 9999 FEW020 14/11 Q1011 NOSIG
cycle: 0

Station Type Date Time Source
LFOB TAF 2021/07/30 18:21 UTC NOAA

TAF TAF LFOB 301700Z 3018/3118 25010KT 9999 SCT040
TEMPO 3018/3019 25015G25KT
TEMPO 3108/3118 3000 SHRA BKN025CB

Example: see airport list